sensor_id;sensor_type;location;lat;lon;timestamp;P1;durP1;ratioP1;P2;durP2;ratioP2
6955;SDS011;50345;51.136;16.886;2022-12-05T00:00:16;51.35;;;33.17;;
6955;SDS011;50345;51.136;16.886;2022-12-05T00:02:42;54.60;;;34.28;;
6955;SDS011;50345;51.136;16.886;2022-12-05T00:05:09;49.38;;;30.38;;
6955;SDS011;50345;51.136;16.886;2022-12-05T00:07:35;51.38;;;34.22;;
6955;SDS011;50345;51.136;16.886;2022-12-05T00:10:02;52.55;;;31.70;;
6955;SDS011;50345;51.136;16.886;2022-12-05T00:12:28;49.13;;;31.33;;
6955;SDS011;50345;51.136;16.886;2022-12-05T00:14:54;59.35;;;33.45;;
6955;SDS011;50345;51.136;16.886;2022-12-05T00:17:20;51.97;;;33.55;;
6955;SDS011;50345;51.136;16.886;2022-12-05T00:19:47;50.75;;;30.98;;
6955;SDS011;50345;51.136;16.886;2022-12-05T00:22:13;49.05;;;30.92;;
6955;SDS011;50345;51.136;16.886;2022-12-05T00:24:39;47.10;;;29.88;;
6955;SDS011;50345;51.136;16.886;2022-12-05T00:27:05;51.35;;;31.45;;
6955;SDS011;50345;51.136;16.886;2022-12-05T00:29:31;53.40;;;31.65;;
6955;SDS011;50345;51.136;16.886;2022-12-05T00:31:57;47.83;;;29.35;;
6955;SDS011;50345;51.136;16.886;2022-12-05T00:34:23;47.70;;;28.25;;
6955;SDS011;50345;51.136;16.886;2022-12-05T00:36:49;51.15;;;30.67;;
6955;SDS011;50345;51.136;16.886;2022-12-05T00:39:15;45.80;;;28.48;;
6955;SDS011;50345;51.136;16.886;2022-12-05T00:41:41;45.15;;;29.52;;
6955;SDS011;50345;51.136;16.886;2022-12-05T00:44:07;43.88;;;28.25;;
6955;SDS011;50345;51.136;16.886;2022-12-05T00:46:33;50.50;;;30.20;;
6955;SDS011;50345;51.136;16.886;2022-12-05T00:49:00;47.70;;;29.75;;
6955;SDS011;50345;51.136;16.886;2022-12-05T00:51:28;44.67;;;28.65;;
6955;SDS011;50345;51.136;16.886;2022-12-05T00:53:56;40.75;;;29.10;;
6955;SDS011;50345;51.136;16.886;2022-12-05T00:56:22;46.08;;;31.08;;
6955;SDS011;50345;51.136;16.886;2022-12-05T00:58:49;42.38;;;28.90;;
6955;SDS011;50345;51.136;16.886;2022-12-05T01:01:29;44.25;;;29.98;;
6955;SDS011;50345;51.136;16.886;2022-12-05T01:04:03;52.85;;;31.65;;
6955;SDS011;50345;51.136;16.886;2022-12-05T01:06:29;41.55;;;28.17;;
6955;SDS011;50345;51.136;16.886;2022-12-05T01:08:56;48.83;;;31.27;;
6955;SDS011;50345;51.136;16.886;2022-12-05T01:11:22;48.38;;;31.67;;
6955;SDS011;50345;51.136;16.886;2022-12-05T01:13:49;53.55;;;33.58;;
6955;SDS011;50345;51.136;16.886;2022-12-05T01:16:16;53.53;;;34.10;;
6955;SDS011;50345;51.136;16.886;2022-12-05T01:18:42;49.38;;;32.08;;
6955;SDS011;50345;51.136;16.886;2022-12-05T01:21:08;49.28;;;31.48;;
6955;SDS011;50345;51.136;16.886;2022-12-05T01:23:34;54.50;;;35.13;;
6955;SDS011;50345;51.136;16.886;2022-12-05T01:26:00;57.58;;;33.55;;
6955;SDS011;50345;51.136;16.886;2022-12-05T01:28:29;51.78;;;33.00;;
6955;SDS011;50345;51.136;16.886;2022-12-05T01:30:55;53.30;;;32.53;;
6955;SDS011;50345;51.136;16.886;2022-12-05T01:33:21;59.85;;;35.88;;
6955;SDS011;50345;51.136;16.886;2022-12-05T01:35:47;50.72;;;32.83;;
6955;SDS011;50345;51.136;16.886;2022-12-05T01:38:13;51.58;;;34.35;;
6955;SDS011;50345;51.136;16.886;2022-12-05T01:40:39;53.75;;;33.50;;
6955;SDS011;50345;51.136;16.886;2022-12-05T01:43:09;58.08;;;33.85;;
6955;SDS011;50345;51.136;16.886;2022-12-05T01:45:39;52.75;;;33.70;;
6955;SDS011;50345;51.136;16.886;2022-12-05T01:48:14;56.75;;;35.13;;
6955;SDS011;50345;51.136;16.886;2022-12-05T01:50:41;51.15;;;34.65;;
6955;SDS011;50345;51.136;16.886;2022-12-05T01:53:07;53.40;;;35.70;;
6955;SDS011;50345;51.136;16.886;2022-12-05T01:55:33;55.78;;;35.60;;
6955;SDS011;50345;51.136;16.886;2022-12-05T01:58:00;57.00;;;36.95;;
6955;SDS011;50345;51.136;16.886;2022-12-05T02:00:27;54.92;;;35.10;;
6955;SDS011;50345;51.136;16.886;2022-12-05T02:02:54;52.97;;;36.20;;
6955;SDS011;50345;51.136;16.886;2022-12-05T02:05:23;52.33;;;34.80;;
6955;SDS011;50345;51.136;16.886;2022-12-05T02:07:50;53.53;;;36.15;;
6955;SDS011;50345;51.136;16.886;2022-12-05T02:10:17;58.55;;;37.55;;
6955;SDS011;50345;51.136;16.886;2022-12-05T02:12:43;52.03;;;34.28;;
6955;SDS011;50345;51.136;16.886;2022-12-05T02:20:29;50.30;;;34.85;;
6955;SDS011;50345;51.136;16.886;2022-12-05T02:23:20;53.53;;;35.00;;
6955;SDS011;50345;51.136;16.886;2022-12-05T02:36:21;47.13;;;32.60;;
6955;SDS011;50345;51.136;16.886;2022-12-05T02:39:02;50.72;;;31.55;;
6955;SDS011;50345;51.136;16.886;2022-12-05T02:41:31;45.75;;;29.55;;
6955;SDS011;50345;51.136;16.886;2022-12-05T02:44:04;49.50;;;31.15;;
6955;SDS011;50345;51.136;16.886;2022-12-05T02:46:33;51.30;;;34.30;;
6955;SDS011;50345;51.136;16.886;2022-12-05T02:49:10;51.03;;;32.67;;
6955;SDS011;50345;51.136;16.886;2022-12-05T02:51:40;53.00;;;32.58;;
6955;SDS011;50345;51.136;16.886;2022-12-05T02:54:09;45.22;;;28.70;;
6955;SDS011;50345;51.136;16.886;2022-12-05T02:56:37;49.95;;;29.85;;
6955;SDS011;50345;51.136;16.886;2022-12-05T02:59:03;56.35;;;32.20;;
6955;SDS011;50345;51.136;16.886;2022-12-05T03:01:29;46.45;;;30.52;;
6955;SDS011;50345;51.136;16.886;2022-12-05T03:03:56;49.95;;;31.75;;
6955;SDS011;50345;51.136;16.886;2022-12-05T03:06:31;48.67;;;31.45;;
6955;SDS011;50345;51.136;16.886;2022-12-05T03:09:00;47.38;;;32.67;;
6955;SDS011;50345;51.136;16.886;2022-12-05T03:11:31;47.95;;;31.13;;
6955;SDS011;50345;51.136;16.886;2022-12-05T03:13:59;45.33;;;30.92;;
6955;SDS011;50345;51.136;16.886;2022-12-05T03:16:37;52.20;;;33.05;;
6955;SDS011;50345;51.136;16.886;2022-12-05T03:19:08;47.08;;;31.65;;
6955;SDS011;50345;51.136;16.886;2022-12-05T03:21:40;52.42;;;32.83;;
6955;SDS011;50345;51.136;16.886;2022-12-05T03:24:09;43.22;;;29.63;;
6955;SDS011;50345;51.136;16.886;2022-12-05T03:37:10;47.65;;;28.30;;
6955;SDS011;50345;51.136;16.886;2022-12-05T03:39:38;43.15;;;29.63;;
6955;SDS011;50345;51.136;16.886;2022-12-05T03:42:11;51.95;;;30.73;;
6955;SDS011;50345;51.136;16.886;2022-12-05T03:47:09;45.28;;;29.38;;
6955;SDS011;50345;51.136;16.886;2022-12-05T03:49:58;42.22;;;28.20;;
6955;SDS011;50345;51.136;16.886;2022-12-05T03:54:54;49.53;;;30.45;;
6955;SDS011;50345;51.136;16.886;2022-12-05T03:57:22;39.45;;;26.50;;
6955;SDS011;50345;51.136;16.886;2022-12-05T04:02:33;42.45;;;28.92;;
6955;SDS011;50345;51.136;16.886;2022-12-05T04:05:10;37.13;;;26.50;;
6955;SDS011;50345;51.136;16.886;2022-12-05T04:07:38;42.80;;;28.30;;
6955;SDS011;50345;51.136;16.886;2022-12-05T04:10:06;41.40;;;26.92;;
6955;SDS011;50345;51.136;16.886;2022-12-05T04:12:34;42.70;;;27.45;;
6955;SDS011;50345;51.136;16.886;2022-12-05T04:15:03;40.45;;;26.80;;
6955;SDS011;50345;51.136;16.886;2022-12-05T04:17:39;49.10;;;27.40;;
6955;SDS011;50345;51.136;16.886;2022-12-05T04:20:12;36.95;;;25.00;;
6955;SDS011;50345;51.136;16.886;2022-12-05T04:22:58;40.67;;;27.95;;
6955;SDS011;50345;51.136;16.886;2022-12-05T04:25:25;37.25;;;23.63;;
6955;SDS011;50345;51.136;16.886;2022-12-05T04:28:09;42.65;;;27.73;;
6955;SDS011;50345;51.136;16.886;2022-12-05T04:30:39;43.78;;;28.38;;
6955;SDS011;50345;51.136;16.886;2022-12-05T04:33:07;40.42;;;27.45;;
6955;SDS011;50345;51.136;16.886;2022-12-05T04:35:58;40.05;;;27.33;;
6955;SDS011;50345;51.136;16.886;2022-12-05T04:38:31;41.28;;;26.73;;
6955;SDS011;50345;51.136;16.886;2022-12-05T04:41:01;39.88;;;27.10;;
6955;SDS011;50345;51.136;16.886;2022-12-05T04:43:29;33.58;;;25.67;;
6955;SDS011;50345;51.136;16.886;2022-12-05T04:45:57;45.78;;;29.02;;
6955;SDS011;50345;51.136;16.886;2022-12-05T04:48:24;40.10;;;27.67;;
6955;SDS011;50345;51.136;16.886;2022-12-05T04:50:51;51.17;;;29.23;;
6955;SDS011;50345;51.136;16.886;2022-12-05T04:53:18;39.75;;;26.00;;
6955;SDS011;50345;51.136;16.886;2022-12-05T04:55:45;43.00;;;26.92;;
6955;SDS011;50345;51.136;16.886;2022-12-05T04:58:14;42.17;;;28.17;;
6955;SDS011;50345;51.136;16.886;2022-12-05T05:03:10;38.42;;;27.63;;
6955;SDS011;50345;51.136;16.886;2022-12-05T05:05:38;39.38;;;27.08;;
6955;SDS011;50345;51.136;16.886;2022-12-05T05:08:14;41.65;;;28.35;;
6955;SDS011;50345;51.136;16.886;2022-12-05T05:10:42;41.58;;;26.40;;
6955;SDS011;50345;51.136;16.886;2022-12-05T05:13:10;44.40;;;27.85;;
6955;SDS011;50345;51.136;16.886;2022-12-05T05:15:36;37.80;;;26.50;;
6955;SDS011;50345;51.136;16.886;2022-12-05T05:18:02;42.28;;;27.08;;
6955;SDS011;50345;51.136;16.886;2022-12-05T05:20:28;35.72;;;26.70;;
6955;SDS011;50345;51.136;16.886;2022-12-05T05:22:54;43.33;;;28.02;;
6955;SDS011;50345;51.136;16.886;2022-12-05T05:25:21;40.20;;;27.83;;
6955;SDS011;50345;51.136;16.886;2022-12-05T05:27:48;38.97;;;26.30;;
6955;SDS011;50345;51.136;16.886;2022-12-05T05:30:15;40.60;;;25.35;;
6955;SDS011;50345;51.136;16.886;2022-12-05T05:32:41;44.28;;;28.45;;
6955;SDS011;50345;51.136;16.886;2022-12-05T05:35:07;40.42;;;27.80;;
6955;SDS011;50345;51.136;16.886;2022-12-05T05:37:33;36.97;;;26.42;;
6955;SDS011;50345;51.136;16.886;2022-12-05T05:39:59;34.65;;;25.40;;
6955;SDS011;50345;51.136;16.886;2022-12-05T05:42:25;39.92;;;26.85;;
6955;SDS011;50345;51.136;16.886;2022-12-05T05:44:51;39.38;;;26.02;;
6955;SDS011;50345;51.136;16.886;2022-12-05T05:47:17;35.10;;;26.13;;
6955;SDS011;50345;51.136;16.886;2022-12-05T05:49:43;34.42;;;23.20;;
6955;SDS011;50345;51.136;16.886;2022-12-05T05:52:09;38.15;;;25.55;;
6955;SDS011;50345;51.136;16.886;2022-12-05T05:54:35;39.17;;;24.98;;
6955;SDS011;50345;51.136;16.886;2022-12-05T05:57:01;37.58;;;25.40;;
6955;SDS011;50345;51.136;16.886;2022-12-05T05:59:27;35.47;;;24.50;;
6955;SDS011;50345;51.136;16.886;2022-12-05T06:01:53;36.60;;;24.88;;
6955;SDS011;50345;51.136;16.886;2022-12-05T06:04:19;34.45;;;24.35;;
6955;SDS011;50345;51.136;16.886;2022-12-05T06:06:45;38.20;;;26.85;;
6955;SDS011;50345;51.136;16.886;2022-12-05T06:09:11;46.00;;;30.65;;
6955;SDS011;50345;51.136;16.886;2022-12-05T06:11:37;41.78;;;26.98;;
6955;SDS011;50345;51.136;16.886;2022-12-05T06:14:03;38.50;;;26.52;;
6955;SDS011;50345;51.136;16.886;2022-12-05T06:16:29;35.80;;;24.08;;
6955;SDS011;50345;51.136;16.886;2022-12-05T06:18:56;42.53;;;26.55;;
6955;SDS011;50345;51.136;16.886;2022-12-05T06:21:22;40.53;;;27.33;;
6955;SDS011;50345;51.136;16.886;2022-12-05T06:23:48;37.63;;;26.40;;
6955;SDS011;50345;51.136;16.886;2022-12-05T06:26:15;41.22;;;26.30;;
6955;SDS011;50345;51.136;16.886;2022-12-05T06:28:42;42.05;;;26.73;;
6955;SDS011;50345;51.136;16.886;2022-12-05T06:31:09;45.35;;;27.55;;
6955;SDS011;50345;51.136;16.886;2022-12-05T06:33:35;42.63;;;28.30;;
6955;SDS011;50345;51.136;16.886;2022-12-05T06:36:03;40.45;;;27.85;;
6955;SDS011;50345;51.136;16.886;2022-12-05T06:38:29;50.00;;;31.02;;
6955;SDS011;50345;51.136;16.886;2022-12-05T06:40:55;44.28;;;28.90;;
6955;SDS011;50345;51.136;16.886;2022-12-05T06:43:21;44.05;;;27.95;;
6955;SDS011;50345;51.136;16.886;2022-12-05T06:45:47;38.40;;;25.17;;
6955;SDS011;50345;51.136;16.886;2022-12-05T06:48:13;38.33;;;25.95;;
6955;SDS011;50345;51.136;16.886;2022-12-05T06:50:46;38.88;;;26.20;;
6955;SDS011;50345;51.136;16.886;2022-12-05T06:53:12;39.67;;;27.52;;
6955;SDS011;50345;51.136;16.886;2022-12-05T06:55:38;43.60;;;26.58;;
6955;SDS011;50345;51.136;16.886;2022-12-05T06:58:04;47.28;;;28.27;;
6955;SDS011;50345;51.136;16.886;2022-12-05T07:00:30;41.13;;;26.95;;
6955;SDS011;50345;51.136;16.886;2022-12-05T07:03:14;42.05;;;27.85;;
6955;SDS011;50345;51.136;16.886;2022-12-05T07:05:40;34.53;;;25.45;;
6955;SDS011;50345;51.136;16.886;2022-12-05T07:08:06;39.33;;;25.85;;
6955;SDS011;50345;51.136;16.886;2022-12-05T07:10:32;40.83;;;26.73;;
6955;SDS011;50345;51.136;16.886;2022-12-05T07:12:58;40.03;;;26.88;;
6955;SDS011;50345;51.136;16.886;2022-12-05T07:15:24;42.58;;;26.83;;
6955;SDS011;50345;51.136;16.886;2022-12-05T07:17:50;39.53;;;27.80;;
6955;SDS011;50345;51.136;16.886;2022-12-05T07:20:16;50.30;;;30.35;;
6955;SDS011;50345;51.136;16.886;2022-12-05T07:22:42;35.85;;;27.35;;
6955;SDS011;50345;51.136;16.886;2022-12-05T07:25:09;42.53;;;29.13;;
6955;SDS011;50345;51.136;16.886;2022-12-05T07:27:35;39.55;;;28.35;;
6955;SDS011;50345;51.136;16.886;2022-12-05T07:30:02;42.03;;;27.83;;
6955;SDS011;50345;51.136;16.886;2022-12-05T07:32:32;45.47;;;29.08;;
6955;SDS011;50345;51.136;16.886;2022-12-05T07:34:58;39.28;;;26.67;;
6955;SDS011;50345;51.136;16.886;2022-12-05T07:37:24;43.80;;;30.10;;
6955;SDS011;50345;51.136;16.886;2022-12-05T07:39:51;43.20;;;30.52;;
6955;SDS011;50345;51.136;16.886;2022-12-05T07:42:17;45.30;;;27.70;;
6955;SDS011;50345;51.136;16.886;2022-12-05T07:44:43;44.17;;;29.95;;
6955;SDS011;50345;51.136;16.886;2022-12-05T07:47:09;37.33;;;26.55;;
6955;SDS011;50345;51.136;16.886;2022-12-05T07:49:35;42.83;;;27.45;;
6955;SDS011;50345;51.136;16.886;2022-12-05T07:52:01;36.03;;;28.50;;
6955;SDS011;50345;51.136;16.886;2022-12-05T07:54:27;41.95;;;28.05;;
6955;SDS011;50345;51.136;16.886;2022-12-05T07:56:53;35.28;;;25.75;;
6955;SDS011;50345;51.136;16.886;2022-12-05T07:59:19;38.17;;;26.40;;
6955;SDS011;50345;51.136;16.886;2022-12-05T08:01:45;38.88;;;25.55;;
6955;SDS011;50345;51.136;16.886;2022-12-05T08:04:11;43.40;;;27.63;;
6955;SDS011;50345;51.136;16.886;2022-12-05T08:06:37;42.13;;;26.92;;
6955;SDS011;50345;51.136;16.886;2022-12-05T08:09:03;44.10;;;29.05;;
6955;SDS011;50345;51.136;16.886;2022-12-05T08:11:30;42.30;;;27.65;;
6955;SDS011;50345;51.136;16.886;2022-12-05T08:13:59;47.33;;;29.25;;
6955;SDS011;50345;51.136;16.886;2022-12-05T08:16:26;39.50;;;28.55;;
6955;SDS011;50345;51.136;16.886;2022-12-05T08:19:03;42.97;;;28.75;;
6955;SDS011;50345;51.136;16.886;2022-12-05T08:21:29;35.22;;;26.75;;
6955;SDS011;50345;51.136;16.886;2022-12-05T08:23:56;41.92;;;28.73;;
6955;SDS011;50345;51.136;16.886;2022-12-05T08:26:26;38.45;;;27.77;;
6955;SDS011;50345;51.136;16.886;2022-12-05T08:28:53;36.75;;;27.33;;
6955;SDS011;50345;51.136;16.886;2022-12-05T08:31:19;40.10;;;26.50;;
6955;SDS011;50345;51.136;16.886;2022-12-05T08:33:47;35.72;;;26.90;;
6955;SDS011;50345;51.136;16.886;2022-12-05T08:36:13;42.83;;;28.33;;
6955;SDS011;50345;51.136;16.886;2022-12-05T08:38:40;43.05;;;28.10;;
6955;SDS011;50345;51.136;16.886;2022-12-05T08:41:07;38.35;;;27.92;;
6955;SDS011;50345;51.136;16.886;2022-12-05T08:43:33;44.78;;;28.88;;
6955;SDS011;50345;51.136;16.886;2022-12-05T08:46:00;38.05;;;26.20;;
6955;SDS011;50345;51.136;16.886;2022-12-05T08:48:27;43.42;;;28.52;;
6955;SDS011;50345;51.136;16.886;2022-12-05T08:50:53;48.50;;;28.27;;
6955;SDS011;50345;51.136;16.886;2022-12-05T08:53:19;41.50;;;30.77;;
6955;SDS011;50345;51.136;16.886;2022-12-05T08:55:45;43.90;;;28.02;;
6955;SDS011;50345;51.136;16.886;2022-12-05T08:58:11;40.63;;;29.10;;
6955;SDS011;50345;51.136;16.886;2022-12-05T09:00:37;38.22;;;27.63;;
6955;SDS011;50345;51.136;16.886;2022-12-05T09:03:04;39.15;;;28.88;;
6955;SDS011;50345;51.136;16.886;2022-12-05T09:05:30;48.33;;;31.50;;
6955;SDS011;50345;51.136;16.886;2022-12-05T09:07:56;48.55;;;30.10;;
6955;SDS011;50345;51.136;16.886;2022-12-05T09:10:23;41.35;;;27.92;;
6955;SDS011;50345;51.136;16.886;2022-12-05T09:12:49;41.20;;;28.77;;
6955;SDS011;50345;51.136;16.886;2022-12-05T09:15:16;40.95;;;28.33;;
6955;SDS011;50345;51.136;16.886;2022-12-05T09:17:42;48.28;;;29.58;;
6955;SDS011;50345;51.136;16.886;2022-12-05T09:20:08;48.83;;;31.33;;
6955;SDS011;50345;51.136;16.886;2022-12-05T09:22:37;44.92;;;30.67;;
6955;SDS011;50345;51.136;16.886;2022-12-05T09:25:04;48.05;;;32.30;;
6955;SDS011;50345;51.136;16.886;2022-12-05T09:27:30;44.88;;;29.85;;
6955;SDS011;50345;51.136;16.886;2022-12-05T09:29:56;43.55;;;30.08;;
6955;SDS011;50345;51.136;16.886;2022-12-05T09:32:22;46.95;;;29.30;;
6955;SDS011;50345;51.136;16.886;2022-12-05T09:34:48;42.50;;;31.40;;
6955;SDS011;50345;51.136;16.886;2022-12-05T09:37:14;51.13;;;29.83;;
6955;SDS011;50345;51.136;16.886;2022-12-05T09:39:42;45.55;;;30.35;;
6955;SDS011;50345;51.136;16.886;2022-12-05T09:42:27;45.08;;;30.33;;
6955;SDS011;50345;51.136;16.886;2022-12-05T09:52:58;47.85;;;33.42;;
6955;SDS011;50345;51.136;16.886;2022-12-05T09:55:24;47.33;;;33.00;;
6955;SDS011;50345;51.136;16.886;2022-12-05T09:57:56;49.72;;;33.15;;
6955;SDS011;50345;51.136;16.886;2022-12-05T10:00:22;42.78;;;30.30;;
6955;SDS011;50345;51.136;16.886;2022-12-05T10:05:39;52.85;;;33.90;;
6955;SDS011;50345;51.136;16.886;2022-12-05T10:08:10;46.83;;;34.72;;
6955;SDS011;50345;51.136;16.886;2022-12-05T10:10:52;46.17;;;32.42;;
6955;SDS011;50345;51.136;16.886;2022-12-05T10:13:26;47.42;;;33.85;;
6955;SDS011;50345;51.136;16.886;2022-12-05T10:15:59;48.60;;;34.20;;
6955;SDS011;50345;51.136;16.886;2022-12-05T10:18:44;50.72;;;33.30;;
6955;SDS011;50345;51.136;16.886;2022-12-05T10:21:13;46.97;;;31.58;;
6955;SDS011;50345;51.136;16.886;2022-12-05T10:23:45;49.47;;;32.47;;
6955;SDS011;50345;51.136;16.886;2022-12-05T10:26:13;49.65;;;35.55;;
6955;SDS011;50345;51.136;16.886;2022-12-05T10:28:42;57.60;;;36.40;;
6955;SDS011;50345;51.136;16.886;2022-12-05T10:31:12;51.50;;;34.20;;
6955;SDS011;50345;51.136;16.886;2022-12-05T10:33:40;57.47;;;37.67;;
6955;SDS011;50345;51.136;16.886;2022-12-05T10:36:08;51.88;;;35.03;;
6955;SDS011;50345;51.136;16.886;2022-12-05T10:38:35;46.15;;;32.85;;
6955;SDS011;50345;51.136;16.886;2022-12-05T10:41:04;53.75;;;35.60;;
6955;SDS011;50345;51.136;16.886;2022-12-05T10:43:31;48.92;;;33.50;;
6955;SDS011;50345;51.136;16.886;2022-12-05T10:45:58;45.92;;;32.80;;
6955;SDS011;50345;51.136;16.886;2022-12-05T10:48:24;48.80;;;34.67;;
6955;SDS011;50345;51.136;16.886;2022-12-05T10:50:52;56.03;;;36.80;;
6955;SDS011;50345;51.136;16.886;2022-12-05T10:53:20;55.83;;;34.83;;
6955;SDS011;50345;51.136;16.886;2022-12-05T10:55:48;52.03;;;34.72;;
6955;SDS011;50345;51.136;16.886;2022-12-05T10:58:17;52.10;;;34.10;;
6955;SDS011;50345;51.136;16.886;2022-12-05T11:00:48;46.58;;;33.28;;
6955;SDS011;50345;51.136;16.886;2022-12-05T11:03:28;48.17;;;33.08;;
6955;SDS011;50345;51.136;16.886;2022-12-05T11:05:56;43.92;;;30.08;;
6955;SDS011;50345;51.136;16.886;2022-12-05T11:08:27;48.97;;;32.33;;
6955;SDS011;50345;51.136;16.886;2022-12-05T11:11:00;50.55;;;33.67;;
6955;SDS011;50345;51.136;16.886;2022-12-05T11:13:27;49.60;;;30.80;;
6955;SDS011;50345;51.136;16.886;2022-12-05T11:15:53;53.05;;;33.08;;
6955;SDS011;50345;51.136;16.886;2022-12-05T11:20:48;42.65;;;32.40;;
6955;SDS011;50345;51.136;16.886;2022-12-05T11:23:16;52.17;;;33.20;;
6955;SDS011;50345;51.136;16.886;2022-12-05T11:25:42;54.60;;;36.03;;
6955;SDS011;50345;51.136;16.886;2022-12-05T11:33:25;52.47;;;35.28;;
6955;SDS011;50345;51.136;16.886;2022-12-05T11:35:52;56.95;;;35.70;;
6955;SDS011;50345;51.136;16.886;2022-12-05T11:38:20;58.58;;;36.85;;
6955;SDS011;50345;51.136;16.886;2022-12-05T11:53:21;59.72;;;35.72;;
6955;SDS011;50345;51.136;16.886;2022-12-05T12:06:56;56.55;;;36.22;;
6955;SDS011;50345;51.136;16.886;2022-12-05T12:12:01;55.92;;;37.70;;
6955;SDS011;50345;51.136;16.886;2022-12-05T12:14:39;57.45;;;39.03;;
6955;SDS011;50345;51.136;16.886;2022-12-05T12:19:39;52.58;;;35.00;;
6955;SDS011;50345;51.136;16.886;2022-12-05T12:32:42;58.58;;;35.85;;
6955;SDS011;50345;51.136;16.886;2022-12-05T12:43:12;52.78;;;37.03;;
6955;SDS011;50345;51.136;16.886;2022-12-05T12:45:55;59.67;;;37.60;;
6955;SDS011;50345;51.136;16.886;2022-12-05T12:50:59;57.92;;;38.28;;
6955;SDS011;50345;51.136;16.886;2022-12-05T12:58:53;60.72;;;38.90;;
6955;SDS011;50345;51.136;16.886;2022-12-05T13:01:39;61.65;;;37.60;;
6955;SDS011;50345;51.136;16.886;2022-12-05T13:09:28;51.78;;;36.55;;
6955;SDS011;50345;51.136;16.886;2022-12-05T13:11:52;46.80;;;35.33;;
6955;SDS011;50345;51.136;16.886;2022-12-05T13:14:20;57.13;;;39.88;;
6955;SDS011;50345;51.136;16.886;2022-12-05T13:16:49;53.25;;;37.80;;
6955;SDS011;50345;51.136;16.886;2022-12-05T13:19:27;55.88;;;38.15;;
6955;SDS011;50345;51.136;16.886;2022-12-05T13:21:55;54.65;;;40.33;;
6955;SDS011;50345;51.136;16.886;2022-12-05T13:24:23;56.47;;;37.65;;
6955;SDS011;50345;51.136;16.886;2022-12-05T13:26:50;58.05;;;35.85;;
6955;SDS011;50345;51.136;16.886;2022-12-05T13:29:18;59.67;;;39.42;;
6955;SDS011;50345;51.136;16.886;2022-12-05T13:31:44;56.38;;;38.42;;
6955;SDS011;50345;51.136;16.886;2022-12-05T13:36:53;65.32;;;40.08;;
6955;SDS011;50345;51.136;16.886;2022-12-05T13:39:39;57.55;;;38.92;;
6955;SDS011;50345;51.136;16.886;2022-12-05T13:42:27;62.85;;;38.28;;
6955;SDS011;50345;51.136;16.886;2022-12-05T13:45:15;57.83;;;39.83;;
6955;SDS011;50345;51.136;16.886;2022-12-05T13:50:15;56.60;;;36.28;;
6955;SDS011;50345;51.136;16.886;2022-12-05T13:52:52;66.88;;;37.50;;
6955;SDS011;50345;51.136;16.886;2022-12-05T13:57:50;55.28;;;37.83;;
6955;SDS011;50345;51.136;16.886;2022-12-05T14:07:45;53.95;;;38.10;;
6955;SDS011;50345;51.136;16.886;2022-12-05T14:10:12;58.40;;;38.20;;
6955;SDS011;50345;51.136;16.886;2022-12-05T14:15:23;48.90;;;36.30;;
6955;SDS011;50345;51.136;16.886;2022-12-05T14:17:49;57.08;;;38.97;;
6955;SDS011;50345;51.136;16.886;2022-12-05T14:20:44;50.97;;;35.53;;
6955;SDS011;50345;51.136;16.886;2022-12-05T14:32:00;64.82;;;36.17;;
6955;SDS011;50345;51.136;16.886;2022-12-05T14:34:22;56.85;;;37.47;;
6955;SDS011;50345;51.136;16.886;2022-12-05T14:36:53;54.67;;;38.00;;
6955;SDS011;50345;51.136;16.886;2022-12-05T14:39:34;58.35;;;37.28;;
6955;SDS011;50345;51.136;16.886;2022-12-05T14:42:02;56.90;;;36.95;;
6955;SDS011;50345;51.136;16.886;2022-12-05T14:44:28;57.38;;;36.78;;
6955;SDS011;50345;51.136;16.886;2022-12-05T14:46:59;58.58;;;37.92;;
6955;SDS011;50345;51.136;16.886;2022-12-05T14:49:33;52.20;;;35.63;;
6955;SDS011;50345;51.136;16.886;2022-12-05T14:51:59;56.20;;;38.95;;
6955;SDS011;50345;51.136;16.886;2022-12-05T14:54:33;59.67;;;39.97;;
6955;SDS011;50345;51.136;16.886;2022-12-05T14:57:05;57.13;;;41.63;;
6955;SDS011;50345;51.136;16.886;2022-12-05T14:59:45;63.97;;;40.80;;
6955;SDS011;50345;51.136;16.886;2022-12-05T15:02:20;80.80;;;51.45;;
6955;SDS011;50345;51.136;16.886;2022-12-05T15:05:04;56.65;;;38.10;;
6955;SDS011;50345;51.136;16.886;2022-12-05T15:07:36;95.45;;;59.58;;
6955;SDS011;50345;51.136;16.886;2022-12-05T15:10:04;73.03;;;47.67;;
6955;SDS011;50345;51.136;16.886;2022-12-05T15:18:13;63.70;;;39.78;;
6955;SDS011;50345;51.136;16.886;2022-12-05T15:20:42;62.92;;;43.97;;
6955;SDS011;50345;51.136;16.886;2022-12-05T15:25:56;53.90;;;38.35;;
6955;SDS011;50345;51.136;16.886;2022-12-05T15:28:22;53.50;;;38.58;;
6955;SDS011;50345;51.136;16.886;2022-12-05T15:30:53;56.60;;;37.65;;
6955;SDS011;50345;51.136;16.886;2022-12-05T15:33:19;55.30;;;39.40;;
6955;SDS011;50345;51.136;16.886;2022-12-05T15:35:45;56.90;;;39.63;;
6955;SDS011;50345;51.136;16.886;2022-12-05T15:38:17;137.90;;;88.38;;
6955;SDS011;50345;51.136;16.886;2022-12-05T15:40:45;88.60;;;62.85;;
6955;SDS011;50345;51.136;16.886;2022-12-05T15:43:46;81.65;;;50.30;;
6955;SDS011;50345;51.136;16.886;2022-12-05T15:48:48;55.92;;;36.92;;
6955;SDS011;50345;51.136;16.886;2022-12-05T15:51:14;52.45;;;36.42;;
6955;SDS011;50345;51.136;16.886;2022-12-05T15:53:45;54.65;;;37.05;;
6955;SDS011;50345;51.136;16.886;2022-12-05T15:58:46;57.40;;;36.85;;
6955;SDS011;50345;51.136;16.886;2022-12-05T16:06:25;54.63;;;39.97;;
6955;SDS011;50345;51.136;16.886;2022-12-05T16:08:52;59.08;;;37.40;;
6955;SDS011;50345;51.136;16.886;2022-12-05T16:11:19;49.53;;;36.30;;
6955;SDS011;50345;51.136;16.886;2022-12-05T16:13:46;53.63;;;38.13;;
6955;SDS011;50345;51.136;16.886;2022-12-05T16:16:16;53.40;;;39.25;;
6955;SDS011;50345;51.136;16.886;2022-12-05T16:18:51;60.05;;;41.90;;
6955;SDS011;50345;51.136;16.886;2022-12-05T16:22:20;67.13;;;45.38;;
6955;SDS011;50345;51.136;16.886;2022-12-05T16:24:17;63.33;;;43.25;;
6955;SDS011;50345;51.136;16.886;2022-12-05T16:26:43;67.30;;;44.78;;
6955;SDS011;50345;51.136;16.886;2022-12-05T16:29:26;66.03;;;46.30;;
6955;SDS011;50345;51.136;16.886;2022-12-05T16:31:53;63.65;;;43.25;;
6955;SDS011;50345;51.136;16.886;2022-12-05T16:34:19;65.93;;;45.10;;
6955;SDS011;50345;51.136;16.886;2022-12-05T16:36:48;66.13;;;45.78;;
6955;SDS011;50345;51.136;16.886;2022-12-05T16:39:15;88.43;;;54.72;;
6955;SDS011;50345;51.136;16.886;2022-12-05T16:41:41;80.78;;;55.53;;
6955;SDS011;50345;51.136;16.886;2022-12-05T16:46:52;77.47;;;54.13;;
6955;SDS011;50345;51.136;16.886;2022-12-05T16:49:20;68.05;;;48.30;;
6955;SDS011;50345;51.136;16.886;2022-12-05T16:51:56;66.65;;;46.53;;
6955;SDS011;50345;51.136;16.886;2022-12-05T16:54:23;73.10;;;48.28;;
6955;SDS011;50345;51.136;16.886;2022-12-05T16:56:49;87.63;;;57.58;;
6955;SDS011;50345;51.136;16.886;2022-12-05T16:59:19;76.13;;;53.50;;
6955;SDS011;50345;51.136;16.886;2022-12-05T17:01:46;96.72;;;57.83;;
6955;SDS011;50345;51.136;16.886;2022-12-05T17:04:12;164.93;;;89.38;;
6955;SDS011;50345;51.136;16.886;2022-12-05T17:06:38;181.50;;;101.28;;
6955;SDS011;50345;51.136;16.886;2022-12-05T17:09:04;143.02;;;77.25;;
6955;SDS011;50345;51.136;16.886;2022-12-05T17:11:31;113.22;;;66.28;;
6955;SDS011;50345;51.136;16.886;2022-12-05T17:13:59;99.20;;;63.40;;